Time;durP1;ratioP1;P1;durP2;ratioP2;P2;SDS_P1;SDS_P2;PMS_P1;PMS_P2;Temp;Humidity;BMP_temperature;BMP_pressure;BME280_temperature;BME280_humidity;BME280_pressure;Samples;Min_cycle;Max_cycle;Signal;HPM_P1;HPM_P2
2021/09/03 00:01:13;;;;;;;6.82;0.90;;;;;;;7.53;71.41;98906.81;5134098;27;20050;-64
2021/09/03 00:03:39;;;;;;;3.58;1.13;;;;;;;7.45;71.42;98894.13;5134104;27;20092;-64
2021/09/03 00:06:04;;;;;;;8.82;1.27;;;;;;;7.32;71.52;98873.00;5131546;27;20031;-63
2021/09/03 00:08:30;;;;;;;3.97;1.30;;;;;;;7.49;71.42;98911.56;5133494;27;20075;-64
2021/09/03 00:10:55;;;;;;;11.15;1.38;;;;;;;7.50;71.49;98907.94;5133577;27;20055;-65
2021/09/03 00:13:21;;;;;;;3.10;1.23;;;;;;;7.49;71.65;98906.25;5133714;27;20035;-64
2021/09/03 00:15:46;;;;;;;5.55;1.20;;;;;;;7.42;71.51;98897.91;5131716;27;20038;-63
2021/09/03 00:18:12;;;;;;;3.40;1.20;;;;;;;7.41;71.88;98898.88;5133231;27;20023;-63
2021/09/03 00:20:38;;;;;;;4.18;1.30;;;;;;;7.42;71.80;98902.38;5133900;27;20035;-64
2021/09/03 00:23:03;;;;;;;2.60;1.20;;;;;;;7.40;71.95;98899.00;5133625;27;20049;-62
2021/09/03 00:25:29;;;;;;;4.00;1.65;;;;;;;7.39;72.10;98889.31;5131373;27;20207;-63
2021/09/03 00:28:00;;;;;;;3.20;1.35;;;;;;;7.36;72.09;98892.22;5133615;27;20037;-63
2021/09/03 00:30:26;;;;;;;7.50;1.42;;;;;;;7.33;72.22;98890.66;5133126;27;20034;-63
2021/09/03 00:32:51;;;;;;;5.63;1.50;;;;;;;7.29;72.35;98889.22;5133627;27;20101;-65
2021/09/03 00:35:17;;;;;;;3.83;1.40;;;;;;;7.23;72.38;98879.91;5132958;27;20461;-63
2021/09/03 00:37:42;;;;;;;4.40;1.27;;;;;;;7.26;72.85;98878.81;5128958;27;20042;-64
2021/09/03 00:40:08;;;;;;;6.55;1.73;;;;;;;7.21;72.82;98876.53;5133506;27;20027;-64
2021/09/03 00:42:34;;;;;;;5.43;1.48;;;;;;;7.21;72.85;98883.69;5115252;27;20384;-65
2021/09/03 00:44:59;;;;;;;2.17;1.48;;;;;;;7.20;73.04;98874.84;5115708;27;20513;-63
2021/09/03 00:47:25;;;;;;;1.70;1.45;;;;;;;7.17;72.98;98869.78;5130780;27;20031;-64
2021/09/03 00:49:51;;;;;;;6.00;1.75;;;;;;;7.02;73.03;98837.28;5132862;27;20122;-63
2021/09/03 00:52:17;;;;;;;4.28;1.48;;;;;;;7.13;73.06;98868.34;5133598;27;20027;-64
2021/09/03 00:54:43;;;;;;;3.42;1.60;;;;;;;7.11;73.42;98864.97;5132502;27;20437;-64
2021/09/03 00:57:09;;;;;;;7.60;1.65;;;;;;;7.09;73.63;98859.75;5130705;27;20083;-64
2021/09/03 00:59:34;;;;;;;4.15;1.17;;;;;;;6.98;73.32;98844.66;5132498;27;20099;-64
2021/09/03 01:02:00;;;;;;;3.28;1.33;;;;;;;7.06;73.50;98861.84;5131859;27;20035;-64
2021/09/03 01:04:26;;;;;;;6.72;1.60;;;;;;;6.95;73.49;98839.59;5132341;27;20027;-63
2021/09/03 01:06:51;;;;;;;5.53;1.30;;;;;;;6.95;73.94;98839.59;5131092;27;20027;-62
2021/09/03 01:09:17;;;;;;;3.97;1.50;;;;;;;6.98;73.92;98844.66;5130607;27;20068;-64
2021/09/03 01:11:42;;;;;;;4.80;1.50;;;;;;;6.92;73.75;98842.50;5132168;27;20027;-64
2021/09/03 01:14:08;;;;;;;2.10;1.10;;;;;;;6.97;73.78;98844.78;5132292;27;20031;-64
2021/09/03 01:16:33;;;;;;;3.85;1.58;;;;;;;6.93;73.99;98836.22;5132373;27;20080;-65
2021/09/03 01:19:00;;;;;;;5.13;1.40;;;;;;;6.95;74.09;98842.25;5120977;27;20115;-64
2021/09/03 01:21:26;;;;;;;2.20;1.33;;;;;;;6.93;73.72;98846.84;5111441;28;20027;-64
2021/09/03 01:23:52;;;;;;;1.52;1.27;;;;;;;6.94;73.75;98842.38;5109280;28;20048;-63
2021/09/03 01:26:17;;;;;;;3.38;1.63;;;;;;;6.73;73.82;98803.25;5111852;28;20114;-64
2021/09/03 01:28:48;;;;;;;7.32;2.10;;;;;;;6.97;73.62;98834.16;5112269;27;20376;-64
2021/09/03 01:31:15;;;;;;;1.88;1.60;;;;;;;6.99;73.45;98841.06;5110931;28;20476;-65
2021/09/03 01:33:41;;;;;;;4.15;1.83;;;;;;;6.96;73.20;98841.28;5111463;28;20023;-64
2021/09/03 01:36:16;;;;;;;2.63;2.00;;;;;;;6.74;73.32;98795.13;5111420;28;20024;-64
2021/09/03 01:38:42;;;;;;;5.70;1.90;;;;;;;6.93;73.43;98835.38;5111706;28;20122;-64
2021/09/03 01:41:08;;;;;;;2.75;2.20;;;;;;;6.90;73.33;98820.50;5132535;27;20031;-63
2021/09/03 01:43:33;;;;;;;2.42;1.70;;;;;;;6.90;73.67;98815.19;5131953;27;20111;-64
2021/09/03 01:45:59;;;;;;;2.33;1.70;;;;;;;6.89;73.31;98809.03;5131889;27;20041;-64
2021/09/03 01:48:24;;;;;;;1.95;1.40;;;;;;;6.82;73.41;98804.31;5132427;27;20023;-62
2021/09/03 01:50:50;;;;;;;5.90;1.67;;;;;;;6.88;73.57;98812.66;5117507;27;20116;-64
2021/09/03 01:53:16;;;;;;;2.08;1.50;;;;;;;6.87;73.63;98807.44;5111075;28;20358;-65
2021/09/03 01:55:41;;;;;;;1.67;1.27;;;;;;;6.86;73.56;98803.09;5110279;28;20098;-65
2021/09/03 01:58:07;;;;;;;4.18;1.45;;;;;;;6.85;73.77;98796.09;5111921;28;20532;-66
2021/09/03 02:00:32;;;;;;;3.35;1.50;;;;;;;6.79;73.29;98794.75;5112321;28;20036;-65
2021/09/03 02:02:58;;;;;;;4.00;1.70;;;;;;;6.82;73.44;98802.50;5113691;28;20111;-65
2021/09/03 02:05:23;;;;;;;3.25;1.40;;;;;;;6.77;73.64;98788.72;5132318;27;20055;-64
2021/09/03 02:07:49;;;;;;;5.15;1.30;;;;;;;6.82;73.99;98793.69;5132147;27;20027;-64
2021/09/03 02:10:14;;;;;;;5.15;1.60;;;;;;;6.80;73.86;98798.28;5130163;27;20035;-63
2021/09/03 02:12:40;;;;;;;4.05;1.40;;;;;;;6.80;73.78;98792.97;5110865;28;20406;-64
2021/09/03 02:15:06;;;;;;;4.63;1.40;;;;;;;6.78;73.54;98790.41;5111376;28;20024;-63
2021/09/03 02:17:32;;;;;;;3.42;1.90;;;;;;;6.77;74.12;98788.72;5111560;28;20119;-64
2021/09/03 02:19:58;;;;;;;2.60;1.35;;;;;;;6.77;73.90;98790.56;5111100;28;20031;-63
2021/09/03 02:22:23;;;;;;;1.70;1.45;;;;;;;6.70;73.76;98783.06;5112481;28;20127;-63
2021/09/03 02:24:49;;;;;;;3.05;1.48;;;;;;;6.75;73.93;98785.34;5111197;28;20127;-63
2021/09/03 02:27:14;;;;;;;2.28;1.08;;;;;;;6.75;73.65;98782.69;5111373;28;20089;-64
2021/09/03 02:29:40;;;;;;;5.10;1.60;;;;;;;6.52;73.70;98744.69;5111008;28;20092;-63
2021/09/03 02:32:06;;;;;;;2.80;1.40;;;;;;;6.73;73.88;98780.13;5117557;28;20519;-64
2021/09/03 02:34:31;;;;;;;2.50;1.40;;;;;;;6.72;74.26;98778.44;5128944;27;20027;-65
2021/09/03 02:36:57;;;;;;;5.68;1.30;;;;;;;6.73;73.96;98769.50;5115046;28;20115;-63
2021/09/03 02:39:22;;;;;;;3.08;1.10;;;;;;;6.74;74.10;98778.34;5114918;28;20038;-63
2021/09/03 02:41:48;;;;;;;5.25;1.30;;;;;;;6.70;73.77;98767.09;5114289;27;20457;-65
2021/09/03 02:44:13;;;;;;;1.10;0.90;;;;;;;6.75;73.84;98770.25;5114937;28;20389;-64
2021/09/03 02:46:39;;;;;;;4.32;1.00;;;;;;;6.78;73.70;98774.44;5114872;27;20190;-63
2021/09/03 02:49:04;;;;;;;1.17;0.95;;;;;;;6.79;73.57;98767.34;5114717;28;20063;-64
2021/09/03 02:51:30;;;;;;;1.80;1.20;;;;;;;6.81;73.80;98762.72;5113037;28;20027;-63
2021/09/03 02:53:55;;;;;;;1.75;1.10;;;;;;;6.78;73.69;98758.50;5115921;27;20039;-63
2021/09/03 02:56:21;;;;;;;2.63;1.00;;;;;;;6.86;73.35;98765.84;5114716;28;20102;-63
2021/09/03 02:58:47;;;;;;;4.30;1.15;;;;;;;6.86;73.39;98755.22;5114066;28;20369;-63
2021/09/03 03:01:12;;;;;;;4.78;1.10;;;;;;;6.86;73.50;98752.53;5114270;28;20031;-62
2021/09/03 03:03:38;;;;;;;3.47;0.90;;;;;;;6.72;72.87;98713.78;5115244;27;20092;-63
2021/09/03 03:06:03;;;;;;;6.10;1.30;;;;;;;6.95;73.11;98749.09;5113864;27;20059;-62
2021/09/03 03:08:29;;;;;;;7.15;1.55;;;;;;;7.00;73.03;98752.25;5113813;28;20031;-62
2021/09/03 03:10:54;;;;;;;1.65;1.10;;;;;;;7.05;73.14;98754.50;5114086;28;20469;-63
2021/09/03 03:13:25;;;;;;;5.18;1.33;;;;;;;7.10;72.84;98741.66;5115159;27;20028;-64
2021/09/03 03:15:51;;;;;;;5.10;1.00;;;;;;;7.14;72.18;98742.25;5113774;28;20027;-63
2021/09/03 03:18:17;;;;;;;1.58;1.00;;;;;;;7.19;72.57;98742.72;5113413;28;20032;-62
2021/09/03 03:20:47;;;;;;;2.10;0.98;;;;;;;7.30;72.54;98737.34;5114135;27;20027;-63
2021/09/03 03:23:13;;;;;;;9.73;1.30;;;;;;;7.38;72.03;98703.88;5116676;27;20041;-63
2021/09/03 03:25:39;;;;;;;6.97;1.20;;;;;;;8.03;71.25;98722.28;5126882;27;20032;-64
2021/09/03 03:28:05;;;;;;;4.70;0.95;;;;;;;8.90;68.16;98719.94;5124499;28;20040;-63
2021/09/03 03:30:31;;;;;;;5.22;0.80;;;;;;;10.05;63.64;98693.22;5115953;28;20476;-63
2021/09/03 03:32:57;;;;;;;6.38;1.23;;;;;;;11.31;59.21;98694.28;5113730;28;20104;-64
2021/09/03 03:35:22;;;;;;;2.22;1.00;;;;;;;12.53;55.28;98691.53;5123720;27;20425;-62
2021/09/03 03:37:49;;;;;;;3.33;0.90;;;;;;;13.56;52.11;98689.38;5134325;27;20049;-63
2021/09/03 03:40:15;;;;;;;4.95;0.80;;;;;;;14.45;49.66;98676.75;5133692;27;20472;-63
2021/09/03 03:42:41;;;;;;;4.82;0.82;;;;;;;15.27;46.95;98664.53;5130796;27;20384;-63
2021/09/03 03:45:07;;;;;;;2.60;0.70;;;;;;;16.04;44.85;98659.88;5113639;28;20063;-64
2021/09/03 03:47:32;;;;;;;3.92;0.80;;;;;;;16.68;42.88;98662.00;5112545;28;20119;-62
2021/09/03 03:49:57;;;;;;;3.55;1.00;;;;;;;17.31;41.32;98664.88;5113418;28;20083;-62
2021/09/03 03:52:23;;;;;;;5.07;1.20;;;;;;;17.86;39.91;98645.28;5113769;28;20054;-64
2021/09/03 03:54:48;;;;;;;10.95;1.17;;;;;;;18.47;38.63;98653.66;5114403;27;20363;-64
2021/09/03 03:57:14;;;;;;;8.65;1.35;;;;;;;19.06;37.57;98649.41;5113143;28;20119;-65
2021/09/03 03:59:39;;;;;;;14.68;1.38;;;;;;;19.69;36.18;98658.13;5113326;28;20028;-65
2021/09/03 04:02:05;;;;;;;4.30;0.80;;;;;;;20.36;34.57;98641.59;5112342;28;20520;-64
2021/09/03 04:04:30;;;;;;;1.35;0.60;;;;;;;21.04;33.21;98644.75;5122696;27;20084;-64
2021/09/03 04:06:56;;;;;;;2.70;0.73;;;;;;;21.65;31.93;98639.59;5132759;27;20039;-63
2021/09/03 04:09:22;;;;;;;5.20;0.80;;;;;;;22.27;30.94;98626.94;5133066;27;20063;-64
2021/09/03 04:11:49;;;;;;;1.85;0.68;;;;;;;23.01;29.83;98625.03;5134092;27;20058;-64
2021/09/03 04:14:16;;;;;;;2.40;1.00;;;;;;;23.57;28.31;98606.44;5131702;27;20035;-64
2021/09/03 04:16:42;;;;;;;7.00;1.20;;;;;;;24.21;27.30;98599.31;5133129;27;20492;-65
2021/09/03 04:19:07;;;;;;;1.70;0.70;;;;;;;24.81;26.50;98597.16;5133447;27;20035;-65
2021/09/03 04:21:33;;;;;;;2.28;0.90;;;;;;;24.99;25.38;98585.13;5133693;27;20058;-65
2021/09/03 04:23:58;;;;;;;4.65;0.95;;;;;;;23.94;27.31;98577.97;5131501;27;20051;-64
2021/09/03 04:26:24;;;;;;;1.63;0.70;;;;;;;22.14;29.77;98578.88;5113103;27;20436;-65
2021/09/03 04:28:49;;;;;;;2.92;0.82;;;;;;;20.45;32.68;98582.34;5110868;28;20469;-63
2021/09/03 04:31:15;;;;;;;4.50;1.00;;;;;;;18.91;36.04;98570.91;5111278;28;20028;-65
2021/09/03 04:33:40;;;;;;;2.67;0.93;;;;;;;17.74;38.28;98581.91;5112495;28;20032;-65
2021/09/03 04:36:06;;;;;;;4.25;1.05;;;;;;;16.82;40.50;98592.69;5113297;27;20038;-63
2021/09/03 04:38:31;;;;;;;4.30;0.90;;;;;;;15.98;42.02;98586.88;5112449;28;20031;-64
2021/09/03 04:40:58;;;;;;;4.07;1.02;;;;;;;15.28;43.77;98568.28;5112717;28;20031;-64
2021/09/03 04:43:24;;;;;;;2.25;0.95;;;;;;;14.91;45.16;98595.97;5111359;28;20031;-65
2021/09/03 04:45:49;;;;;;;6.53;1.25;;;;;;;14.57;45.96;98588.31;5113404;27;20076;-65
2021/09/03 04:48:15;;;;;;;3.92;0.85;;;;;;;14.13;47.00;98579.84;5111876;28;20040;-64
2021/09/03 04:50:41;;;;;;;5.95;1.20;;;;;;;13.90;47.69;98579.81;5112115;28;20028;-65
2021/09/03 04:53:06;;;;;;;5.95;1.27;;;;;;;13.10;48.11;98492.91;5112120;28;20354;-64
2021/09/03 04:55:32;;;;;;;7.60;1.30;;;;;;;13.45;48.72;98584.88;5112069;28;20020;-65
2021/09/03 04:57:58;;;;;;;9.82;1.55;;;;;;;13.24;49.28;98575.47;5130996;27;20027;-65
2021/09/03 05:00:24;;;;;;;10.57;1.73;;;;;;;13.11;49.81;98572.50;5132320;27;20035;-65
2021/09/03 05:02:49;;;;;;;6.63;1.42;;;;;;;13.13;49.84;98565.09;5131173;27;20019;-65
2021/09/03 05:05:15;;;;;;;4.47;1.40;;;;;;;13.20;49.72;98575.00;5132080;27;20118;-64
2021/09/03 05:07:41;;;;;;;5.60;1.17;;;;;;;13.24;49.64;98566.59;5118736;27;20135;-64
2021/09/03 05:10:08;;;;;;;3.97;1.23;;;;;;;13.25;49.64;98561.03;5111424;28;20039;-64
2021/09/03 05:12:36;;;;;;;5.35;1.38;;;;;;;13.26;49.73;98557.38;5112072;28;20036;-64
2021/09/03 05:15:06;;;;;;;8.05;1.85;;;;;;;13.23;50.27;98549.63;5111407;28;20038;-63
2021/09/03 05:17:32;;;;;;;5.68;1.52;;;;;;;13.24;50.09;98550.47;5112932;27;20034;-64
2021/09/03 05:19:57;;;;;;;4.80;1.83;;;;;;;13.25;50.09;98544.09;5110056;28;20035;-63
2021/09/03 05:22:23;;;;;;;10.15;1.85;;;;;;;13.35;50.13;98540.19;5111391;28;20027;-64
2021/09/03 05:24:48;;;;;;;5.30;1.60;;;;;;;13.52;49.91;98536.63;5111455;28;20400;-64
2021/09/03 05:27:14;;;;;;;4.38;1.80;;;;;;;13.90;48.64;98526.84;5111842;28;20047;-63
2021/09/03 05:29:39;;;;;;;12.02;1.98;;;;;;;14.48;46.90;98496.81;5121751;27;20051;-65
2021/09/03 05:32:05;;;;;;;6.05;2.05;;;;;;;15.75;43.95;98509.56;5132300;27;20436;-65
2021/09/03 05:34:31;;;;;;;6.30;1.67;;;;;;;17.09;40.91;98515.38;5131803;27;20465;-65
2021/09/03 05:36:57;;;;;;;9.60;2.30;;;;;;;18.13;38.22;98501.88;5131619;27;20035;-65
2021/09/03 05:39:22;;;;;;;7.82;1.40;;;;;;;18.83;37.02;98495.19;5117790;27;20023;-64
2021/09/03 05:41:48;;;;;;;9.18;1.92;;;;;;;19.36;36.08;98490.72;5111440;28;20039;-66
2021/09/03 05:44:14;;;;;;;5.82;1.60;;;;;;;20.39;34.26;98493.53;5119340;28;20023;-66
2021/09/03 05:46:39;;;;;;;6.65;2.88;;;;;;;21.36;32.51;98488.69;5131805;27;20049;-64
2021/09/03 05:49:05;;;;;;;8.68;2.40;;;;;;;21.88;31.48;98477.34;5124724;27;20032;-66
2021/09/03 05:51:30;;;;;;;2.78;2.10;;;;;;;21.95;31.34;98471.81;5119096;28;20091;-65
2021/09/03 05:53:55;;;;;;;5.68;2.05;;;;;;;21.86;31.15;98467.75;5131162;28;20023;-66
2021/09/03 05:56:21;;;;;;;5.88;1.80;;;;;;;21.59;31.50;98477.06;5131760;28;20038;-64
2021/09/03 05:58:46;;;;;;;4.90;2.10;;;;;;;21.16;32.16;98448.91;5130998;27;20069;-65
2021/09/03 06:01:12;;;;;;;11.80;2.00;;;;;;;21.18;32.32;98478.59;5131262;27;20406;-65
2021/09/03 06:03:37;;;;;;;5.95;2.10;;;;;;;21.20;32.28;98465.59;5131576;28;20401;-64
2021/09/03 06:06:03;;;;;;;4.40;1.80;;;;;;;21.40;31.93;98453.66;5132045;27;20409;-65
2021/09/03 06:08:28;;;;;;;7.30;1.90;;;;;;;22.01;30.41;98448.25;5131621;28;20019;-64
2021/09/03 06:10:54;;;;;;;7.35;1.85;;;;;;;23.07;29.17;98455.69;5131667;27;20030;-65
2021/09/03 06:13:19;;;;;;;5.32;1.85;;;;;;;25.00;25.70;98443.59;5119653;27;20024;-65
2021/09/03 06:15:45;;;;;;;5.18;1.90;;;;;;;28.11;22.29;98421.22;5134382;27;20123;-63
2021/09/03 06:18:10;;;;;;;6.60;1.95;;;;;;;31.38;18.25;98422.97;5135296;27;20035;-63
2021/09/03 06:20:36;;;;;;;6.25;1.92;;;;;;;33.53;15.33;98427.13;5131424;27;20148;-65
2021/09/03 06:23:01;;;;;;;11.82;2.05;;;;;;;35.29;14.48;98417.19;5135214;27;20043;-63
2021/09/03 06:25:28;;;;;;;9.45;1.52;;;;;;;36.77;12.80;98422.25;5135834;27;20136;-63
2021/09/03 06:27:53;;;;;;;5.68;1.75;;;;;;;37.86;12.35;98429.41;5135504;27;20426;-64
2021/09/03 06:30:19;;;;;;;5.07;1.58;;;;;;;38.53;11.38;98417.47;5133700;27;20083;-67
2021/09/03 06:32:44;;;;;;;6.00;1.38;;;;;;;38.96;10.99;98402.19;5113250;28;20035;-67
2021/09/03 06:35:10;;;;;;;5.65;1.70;;;;;;;38.95;10.82;98400.56;5114776;28;20027;-66
2021/09/03 06:37:35;;;;;;;5.78;1.40;;;;;;;39.28;10.78;98382.81;5115065;28;20381;-67
2021/09/03 06:40:02;;;;;;;4.50;1.50;;;;;;;39.82;10.08;98383.69;5112876;28;20077;-67
2021/09/03 06:42:32;;;;;;;7.15;1.73;;;;;;;39.85;9.70;98371.75;5113245;27;20123;-68
2021/09/03 06:44:59;;;;;;;2.55;1.42;;;;;;;40.29;9.58;98378.59;5112926;28;20028;-66
2021/09/03 06:47:25;;;;;;;3.13;1.58;;;;;;;40.86;9.05;98358.81;5112470;27;20114;-66
2021/09/03 06:49:51;;;;;;;2.40;1.60;;;;;;;41.43;8.55;98350.94;5112301;28;20444;-65
2021/09/03 06:52:16;;;;;;;9.55;1.98;;;;;;;41.35;8.74;98351.13;5113201;27;20106;-66
2021/09/03 06:54:42;;;;;;;3.85;2.00;;;;;;;41.11;8.90;98350.16;5112873;28;20036;-66
2021/09/03 06:57:08;;;;;;;6.30;2.08;;;;;;;41.55;8.71;98346.34;5114400;28;20030;-66
2021/09/03 06:59:33;;;;;;;4.00;1.90;;;;;;;42.14;7.87;98349.97;5113167;28;20029;-63
2021/09/03 07:02:00;;;;;;;3.83;1.90;;;;;;;42.29;7.74;98344.63;5112335;27;20039;-64
2021/09/03 07:04:26;;;;;;;3.15;1.60;;;;;;;42.04;8.04;98340.16;5113513;28;20043;-64
2021/09/03 07:06:52;;;;;;;5.45;1.88;;;;;;;42.31;7.88;98339.44;5112855;28;20209;-64
2021/09/03 07:09:18;;;;;;;6.97;1.60;;;;;;;42.07;7.90;98335.78;5113355;28;20044;-65
2021/09/03 07:11:44;;;;;;;4.13;1.60;;;;;;;41.37;8.20;98318.72;5113536;28;20058;-66
2021/09/03 07:14:10;;;;;;;6.85;1.92;;;;;;;40.87;8.51;98312.75;5113935;27;20028;-66
2021/09/03 07:16:36;;;;;;;2.08;1.60;;;;;;;40.61;8.54;98292.47;5110937;28;20035;-65
2021/09/03 07:19:03;;;;;;;6.63;1.90;;;;;;;40.71;8.64;98298.72;5113806;28;20059;-64
2021/09/03 07:21:30;;;;;;;2.85;1.48;;;;;;;41.02;8.75;98295.06;5111426;28;20064;-65
2021/09/03 07:23:56;;;;;;;5.00;1.60;;;;;;;41.89;7.90;98291.25;5113228;27;20044;-64
2021/09/03 07:26:21;;;;;;;5.82;1.50;;;;;;;40.22;9.02;98283.03;5114150;28;20443;-64
2021/09/03 07:28:47;;;;;;;2.53;1.40;;;;;;;36.87;11.00;98287.22;5112173;28;20043;-64
2021/09/03 07:31:12;;;;;;;1.52;1.30;;;;;;;33.72;13.79;98281.84;5113160;28;20077;-64
2021/09/03 07:33:38;;;;;;;4.22;1.30;;;;;;;31.28;16.06;98283.75;5114951;27;20476;-63
2021/09/03 07:36:04;;;;;;;1.52;0.90;;;;;;;29.35;17.72;98288.72;5113869;28;20036;-64
2021/09/03 07:38:30;;;;;;;4.78;1.10;;;;;;;28.18;18.76;98287.78;5113561;28;20453;-64
2021/09/03 07:40:56;;;;;;;3.05;0.90;;;;;;;26.53;20.91;98282.78;5113035;28;20051;-64
2021/09/03 07:43:22;;;;;;;3.70;0.90;;;;;;;24.88;22.82;98269.31;5113763;28;20024;-62
2021/09/03 07:45:47;;;;;;;6.43;1.20;;;;;;;23.16;25.42;98265.06;5114992;27;20457;-63
2021/09/03 07:48:13;;;;;;;4.15;1.00;;;;;;;21.90;27.68;98273.59;5113487;28;20043;-64
2021/09/03 07:50:38;;;;;;;2.45;1.00;;;;;;;21.35;28.48;98266.53;5113909;28;20080;-64
2021/09/03 07:53:05;;;;;;;4.93;1.02;;;;;;;21.30;29.75;98269.94;5123512;27;20536;-65
2021/09/03 07:55:32;;;;;;;2.38;0.80;;;;;;;21.10;31.67;98269.38;5127413;27;20114;-63
2021/09/03 07:57:57;;;;;;;2.35;0.80;;;;;;;20.86;31.73;98272.00;5115622;27;20084;-64
2021/09/03 08:00:23;;;;;;;2.70;1.10;;;;;;;20.53;32.15;98265.09;5133095;27;20464;-62
2021/09/03 08:02:49;;;;;;;4.85;1.20;;;;;;;20.29;33.78;98259.50;5133518;27;20413;-64
2021/09/03 08:05:14;;;;;;;2.70;1.02;;;;;;;19.82;34.78;98260.75;5125542;27;20364;-65
2021/09/03 08:07:42;;;;;;;3.10;1.02;;;;;;;19.17;36.26;98243.72;5113436;27;20030;-64
2021/09/03 08:10:12;;;;;;;5.20;1.30;;;;;;;18.99;37.75;98258.00;5132558;27;20032;-64
2021/09/03 08:12:39;;;;;;;1.20;0.95;;;;;;;18.54;39.38;98263.38;5149579;27;20034;-65
2021/09/03 08:15:06;;;;;;;3.35;0.93;;;;;;;17.98;40.30;98239.38;5143734;27;20034;-64
2021/09/03 08:17:33;;;;;;;4.65;1.17;;;;;;;17.68;41.50;98266.03;5139704;27;20576;-65
2021/09/03 08:19:59;;;;;;;6.35;1.40;;;;;;;17.18;43.23;98269.97;5133956;27;20154;-64
2021/09/03 08:22:24;;;;;;;4.70;1.30;;;;;;;16.72;45.00;98264.19;5154418;27;20076;-64
2021/09/03 08:24:50;;;;;;;5.05;1.15;;;;;;;16.43;45.40;98273.41;5131992;27;20477;-66
2021/09/03 08:27:15;;;;;;;2.85;1.20;;;;;;;16.09;47.23;98280.50;5131689;27;20034;-66
2021/09/03 08:29:43;;;;;;;2.80;1.08;;;;;;;15.79;48.63;98274.25;5136708;27;20480;-65
2021/09/03 08:32:08;;;;;;;2.83;1.35;;;;;;;15.59;48.69;98274.06;5133452;27;20387;-66
2021/09/03 08:34:34;;;;;;;3.25;1.20;;;;;;;15.43;49.83;98255.44;5145892;27;20046;-65
2021/09/03 08:36:59;;;;;;;4.38;1.30;;;;;;;15.37;49.65;98259.78;5126618;27;20027;-65
2021/09/03 08:39:25;;;;;;;8.02;3.40;;;;;;;15.35;49.67;98261.84;5119397;27;20027;-64
2021/09/03 08:41:51;;;;;;;10.38;3.97;;;;;;;15.36;49.83;98258.94;5128225;27;20047;-65
2021/09/03 08:44:17;;;;;;;7.68;2.38;;;;;;;15.43;50.03;98252.75;5147479;27;20027;-64
2021/09/03 08:46:44;;;;;;;4.72;1.52;;;;;;;15.52;49.45;98246.22;5137545;27;20038;-64
2021/09/03 08:49:10;;;;;;;4.80;1.23;;;;;;;15.54;49.37;98259.47;5135036;27;20121;-64
2021/09/03 08:51:36;;;;;;;6.05;2.00;;;;;;;15.50;50.07;98248.28;5133164;27;20442;-64
2021/09/03 08:54:02;;;;;;;5.63;1.60;;;;;;;15.48;49.67;98239.53;5129979;27;20420;-66
2021/09/03 08:56:27;;;;;;;3.25;1.20;;;;;;;15.45;49.82;98245.34;5127270;27;20037;-64
2021/09/03 08:58:53;;;;;;;7.18;1.65;;;;;;;15.43;50.26;98237.41;5106000;27;20487;-65
2021/09/03 09:01:19;;;;;;;8.45;1.63;;;;;;;15.45;50.15;98234.53;5143276;27;20034;-64
2021/09/03 09:03:50;;;;;;;3.30;1.58;;;;;;;15.50;50.41;98238.31;5137947;27;20026;-65
2021/09/03 09:06:25;;;;;;;4.53;1.30;;;;;;;15.58;49.48;98245.41;5135122;27;20073;-66
2021/09/03 09:09:07;;;;;;;3.00;1.10;;;;;;;15.71;48.56;98230.38;5129306;27;20030;-66
2021/09/03 09:11:34;;;;;;;4.38;1.10;;;;;;;15.47;49.65;98229.78;5143740;27;20100;-67
2021/09/03 09:14:12;;;;;;;2.20;0.90;;;;;;;15.24;50.19;98236.22;5143177;27;20031;-64
2021/09/03 09:16:38;;;;;;;2.15;0.90;;;;;;;14.98;50.39;98231.41;5148396;27;20027;-64
2021/09/03 09:19:05;;;;;;;3.40;0.90;;;;;;;14.81;51.05;98237.03;5120716;27;20102;-64
2021/09/03 09:21:31;;;;;;;3.53;1.83;;;;;;;14.72;51.43;98230.09;5117141;27;20042;-63
2021/09/03 09:24:02;;;;;;;3.38;1.27;;;;;;;14.58;51.67;98224.50;5133875;27;20480;-69
2021/09/03 09:26:47;;;;;;;4.68;0.98;;;;;;;14.56;51.33;98229.25;5136838;27;20140;-64
2021/09/03 09:29:13;;;;;;;2.85;1.35;;;;;;;14.40;52.96;98211.47;5117407;27;20485;-68
2021/09/03 09:31:38;;;;;;;4.32;1.73;;;;;;;14.32;53.70;98214.28;5130071;27;20118;-66
2021/09/03 09:34:15;;;;;;;6.22;1.70;;;;;;;14.53;51.98;98208.09;5125591;27;20393;-66
2021/09/03 09:36:41;;;;;;;4.93;1.15;;;;;;;14.46;52.93;98218.78;5145459;27;20117;-67
2021/09/03 09:39:06;;;;;;;5.10;1.50;;;;;;;14.41;53.25;98194.28;5136244;27;20589;-63
2021/09/03 09:41:32;;;;;;;2.42;1.15;;;;;;;14.46;52.82;98208.00;5118824;27;20027;-63
2021/09/03 09:43:58;;;;;;;7.43;1.50;;;;;;;14.39;53.84;98207.09;5128317;27;20388;-66
2021/09/03 09:46:25;;;;;;;12.57;2.10;;;;;;;14.41;53.70;98196.97;5140936;27;20035;-66
2021/09/03 09:48:51;;;;;;;7.78;1.20;;;;;;;14.48;53.58;98195.22;5131927;27;20035;-68
2021/09/03 09:51:41;;;;;;;7.00;1.30;;;;;;;14.72;52.65;98195.06;5143753;27;20113;-62
2021/09/03 09:54:25;;;;;;;4.05;1.50;;;;;;;14.81;51.41;98187.72;5143204;27;20038;-62
2021/09/03 09:56:54;;;;;;;3.65;1.50;;;;;;;14.60;53.01;98192.00;5134865;27;20027;-64
2021/09/03 09:59:21;;;;;;;7.95;1.50;;;;;;;14.26;53.57;98123.50;5146788;27;20015;-64
2021/09/03 10:01:54;;;;;;;4.40;1.27;;;;;;;14.59;52.60;98158.03;5137414;27;20034;-63
2021/09/03 10:04:22;;;;;;;4.13;1.58;;;;;;;14.43;53.51;98157.22;5146319;27;20364;-65
2021/09/03 10:06:49;;;;;;;3.78;1.60;;;;;;;14.09;54.26;98129.09;5135093;27;20035;-64
2021/09/03 10:09:21;;;;;;;2.60;1.63;;;;;;;14.27;54.32;98152.09;5140560;27;20023;-67
2021/09/03 10:11:49;;;;;;;3.03;1.65;;;;;;;14.13;54.57;98129.56;5128541;27;20030;-64
2021/09/03 10:14:18;;;;;;;3.35;1.40;;;;;;;14.27;54.27;98147.53;5134148;27;20039;-65
2021/09/03 10:16:45;;;;;;;4.82;1.80;;;;;;;14.02;54.52;98112.06;5142434;27;20043;-70
2021/09/03 10:19:15;;;;;;;6.57;2.20;;;;;;;14.02;55.29;98123.63;5147753;27;20392;-65
2021/09/03 10:21:41;;;;;;;9.90;2.53;;;;;;;14.09;55.74;98147.94;5139646;27;20387;-67
2021/09/03 10:24:08;;;;;;;7.45;2.70;;;;;;;14.11;55.31;98150.47;5134683;27;20457;-63
2021/09/03 10:26:40;;;;;;;12.60;3.03;;;;;;;14.01;55.38;98148.06;5125927;27;20084;-62
2021/09/03 10:29:14;;;;;;;10.95;2.92;;;;;;;14.00;55.78;98146.38;5130170;27;20023;-62
2021/09/03 10:32:04;;;;;;;9.50;2.95;;;;;;;13.94;55.58;98134.50;5131140;27;20118;-63
2021/09/03 10:34:39;;;;;;;6.13;2.88;;;;;;;13.89;55.99;98132.38;5111865;28;20171;-61
2021/09/03 10:37:29;;;;;;;13.33;3.47;;;;;;;13.91;55.48;98137.56;5118122;27;20026;-62
2021/09/03 10:39:59;;;;;;;5.40;1.83;;;;;;;13.74;56.54;98126.16;5141563;27;20041;-59
2021/09/03 10:42:34;;;;;;;14.63;3.97;;;;;;;13.78;56.70;98138.25;5136112;27;20099;-61
2021/09/03 10:45:11;;;;;;;34.33;6.95;;;;;;;13.76;56.99;98124.16;5147649;27;20023;-61
2021/09/03 10:47:46;;;;;;;7.80;2.47;;;;;;;13.77;56.58;98126.63;5139050;27;20031;-63
2021/09/03 10:50:15;;;;;;;7.72;3.08;;;;;;;13.73;57.33;98128.03;5131789;27;20313;-63
2021/09/03 10:53:06;;;;;;;7.85;2.38;;;;;;;13.79;56.31;98118.38;5115484;27;20032;-62
2021/09/03 10:56:02;;;;;;;5.70;2.53;;;;;;;13.76;56.57;98121.47;5137115;27;20471;-61
2021/09/03 10:58:33;;;;;;;6.32;1.92;;;;;;;13.69;57.34;98125.88;5127113;27;20072;-62
2021/09/03 11:03:57;;;;;;;6.10;2.50;;;;;;;13.74;57.18;98110.88;5142530;27;20038;-65
2021/09/03 11:06:26;;;;;;;7.60;2.22;;;;;;;13.72;57.44;98107.53;5139644;27;20031;-64
2021/09/03 11:08:55;;;;;;;6.63;2.33;;;;;;;13.64;58.32;98108.47;5151393;27;20046;-62
2021/09/03 11:11:24;;;;;;;7.20;2.13;;;;;;;13.63;57.70;98106.78;5138459;27;20027;-63
2021/09/03 11:13:58;;;;;;;8.35;2.25;;;;;;;13.58;58.05;98100.28;5137518;27;20118;-62
2021/09/03 11:17:03;;;;;;;8.45;2.30;;;;;;;13.80;56.17;98100.38;5145020;27;20031;-61
2021/09/03 11:19:36;;;;;;;6.15;2.30;;;;;;;13.70;57.72;98098.81;5055881;28;20028;-61
2021/09/03 11:22:09;;;;;;;6.32;2.50;;;;;;;13.66;58.00;98088.63;5115715;27;20081;-62
2021/09/03 11:24:43;;;;;;;7.70;2.58;;;;;;;13.69;57.20;98053.28;5143284;27;20045;-63
2021/09/03 11:27:12;;;;;;;7.03;2.53;;;;;;;13.87;56.84;98045.66;5119036;27;20027;-62
2021/09/03 11:29:47;;;;;;;17.40;5.03;;;;;;;14.19;56.00;98078.47;5115071;27;20420;-62
2021/09/03 11:32:22;;;;;;;12.75;3.95;;;;;;;14.19;56.08;98067.72;5131802;27;20037;-62
2021/09/03 11:35:01;;;;;;;6.55;3.10;;;;;;;14.01;55.93;98026.97;5119222;27;20377;-62
2021/09/03 11:37:31;;;;;;;15.57;3.97;;;;;;;14.09;56.26;98056.44;5147758;27;20039;-62
2021/09/03 11:40:02;;;;;;;6.18;2.80;;;;;;;14.11;56.31;98051.69;5144749;27;20038;-61